KMVE/MVE METAR and TAF weather

Enter ICAO airport designator
Station Type Date Time Source
KMVE METAR 2019/04/24 22:35 UTC NOAA

KMVE 242235Z AUTO 00000KT 10SM BKN085 21/07 A2969 RMK AO2


Station Type Date Time Source
KMVE Decoded METAR 2019/04/24 22:35 UTC NOAA

Montevideo, Montevideo-Chippewa County Airport, MN, United States (KMVE) 44-58N 095-43W
Apr 24, 2019 - 06:35 PM EDT / 2019.04.24 2235 UTC
Wind: Calm:0
Visibility: 10 mile(s):0
Sky conditions: mostly cloudy
Temperature: 69 F (21 C)
Dew Point: 44 F (7 C)
Relative Humidity: 40%
Pressure (altimeter): 29.69 in. Hg (1005 hPa)
ob: KMVE 242235Z AUTO 00000KT 10SM BKN085 21/07 A2969 RMK AO2
cycle: 22

Station Type Date Time Source
KMVE TAF UTC NOAA

Error!

Example: see airport list